Zhe Pu Tuo 2012 — BKRA5 — position and weather

sailwx.info

Track history (hours):
 
Tides and Currents Weather Stations Pressure Air Temp Water Temp Dewpoint Dewpoint Depression Visibility Wind Speed Wind Dir Waves Ship Positions

Zhe Pu Tuo 2012

Last reported at 2014-Sep-19 05:10 UTC. Time now 2014-Sep-19 19:57 UTC.
Position N 29°55' E 122°39'.

Length 57 m; draft 4 m.

MMSI: 412763040.

Date/timePositionNaut miles runAvg speedWind from/ knotsBaromVisibWave heightAir tempDewpointWater temp
2014-Sep-19 05:10N 29°55' E 122°39'5 7.6
2014-Sep-19 04:32N 29°52' E 122°34'8 7.8
2014-Sep-19 03:33N 29°49' E 122°26'10 9.5
2014-Sep-19 02:33N 29°55' E 122°18'2 2.0
2014-Sep-19 01:33N 29°57' E 122°16'1 0.8
2014-Sep-19 00:33N 29°56' E 122°17'0 0.1
2014-Sep-18 23:33N 29°56' E 122°16'0 0.0
2014-Sep-18 22:33N 29°56' E 122°16'0 0.0
2014-Sep-18 12:33N 29°56' E 122°16'0 0.0
2014-Sep-18 11:33N 29°56' E 122°16'0 0.0
2014-Sep-18 02:14N 29°56' E 122°16'0 0.0
2014-Sep-18 01:31N 29°56' E 122°16'0 0.0
2014-Sep-18 00:33N 29°56' E 122°16'0 0.0
2014-Sep-16 12:33N 29°56' E 122°16'0 0.0
2014-Sep-16 11:33N 29°56' E 122°16'0 0.0
2014-Sep-16 10:33N 29°56' E 122°16'0 0.0
2014-Sep-16 09:33N 29°56' E 122°16'0 0.1
2014-Sep-16 08:33N 29°56' E 122°16'0 0.0
2014-Sep-16 07:33N 29°56' E 122°16'0 0.0
2014-Sep-16 03:33N 29°56' E 122°16'0 0.0
2014-Sep-16 02:33N 29°56' E 122°16'0 0.0
2014-Sep-15 14:25N 29°56' E 122°16'0 0.0
2014-Sep-15 13:33N 29°56' E 122°16'0 0.0
2014-Sep-15 12:33N 29°56' E 122°16'0 0.0
2014-Sep-15 11:33N 29°56' E 122°16'0 0.0
2014-Sep-15 10:33N 29°56' E 122°16'0 0.0
2014-Sep-15 03:30N 29°56' E 122°16'0 0.0
2014-Sep-15 02:33N 29°56' E 122°16'0 0.0
2014-Sep-15 01:33N 29°56' E 122°16'0 0.1
2014-Sep-15 00:33N 29°56' E 122°16'0 0.0
2014-Sep-14 14:14N 29°56' E 122°16'0 0.0
2014-Sep-14 13:33N 29°56' E 122°16'0 0.0
2014-Sep-14 12:33N 29°56' E 122°16'0 0.0
2014-Sep-14 11:33N 29°56' E 122°16'0 0.0
2014-Sep-14 10:33N 29°56' E 122°16'0 0.0
2014-Sep-14 04:30N 29°56' E 122°16'0 0.0
2014-Sep-14 03:33N 29°56' E 122°16'0 0.0
2014-Sep-13 13:20N 29°56' E 122°16'0 0.0
2014-Sep-13 12:33N 29°56' E 122°16'0 0.0
2014-Sep-13 11:34N 29°56' E 122°16'0 0.0
2014-Sep-12 13:24N 29°56' E 122°16'0 0.0
2014-Sep-12 12:33N 29°56' E 122°16'0 0.1
2014-Sep-12 11:34N 29°56' E 122°16'0 0.0
2014-Sep-11 13:07N 29°56' E 122°16'0 0.0
2014-Sep-11 12:33N 29°56' E 122°16'0 0.1
2014-Sep-11 11:33N 29°56' E 122°16'0 0.0
2014-Sep-11 10:33N 29°56' E 122°16'0 0.0
2014-Sep-10 13:09N 29°56' E 122°16'0 0.0
2014-Sep-10 12:33N 29°56' E 122°16'0 0.0
2014-Sep-10 11:34N 29°56' E 122°16'0 0.1
2014-Sep-10 10:33N 29°56' E 122°16'0 0.0
2014-Sep-10 09:33N 29°56' E 122°16'0 0.0
2014-Sep-10 08:33N 29°56' E 122°16'0 0.0
2014-Sep-10 03:33N 29°56' E 122°16'0 0.0
2014-Sep-10 02:33N 29°56' E 122°16'0 0.0
2014-Sep-10 01:33N 29°56' E 122°16'0 0.0
2014-Sep-09 13:11N 29°56' E 122°16'0 0.0
2014-Sep-09 12:33N 29°56' E 122°16'0 0.0
2014-Sep-09 11:34N 29°56' E 122°16'0 0.0
2014-Sep-09 10:33N 29°56' E 122°16'  
Track history (hours):
 
Tides and Currents Weather Stations Pressure Air Temp Water Temp Dewpoint Dewpoint Depression Visibility Wind Speed Wind Dir Waves Ship Positions

Zhe Pu Tuo 2012

Last reported at 2014-Sep-19 05:10 UTC. Time now 2014-Sep-19 19:57 UTC.
Position N 29°55' E 122°39'.

Length 57 m; draft 4 m.

MMSI: 412763040.

Date/timePositionNaut miles runAvg speedWind from/ knotsBaromVisibWave heightAir tempDewpointWater temp
2014-Sep-19 05:10N 29°55' E 122°39'5 7.6
2014-Sep-19 04:32N 29°52' E 122°34'8 7.8
2014-Sep-19 03:33N 29°49' E 122°26'10 9.5
2014-Sep-19 02:33N 29°55' E 122°18'2 2.0
2014-Sep-19 01:33N 29°57' E 122°16'1 0.8
2014-Sep-19 00:33N 29°56' E 122°17'0 0.1
2014-Sep-18 23:33N 29°56' E 122°16'0 0.0
2014-Sep-18 22:33N 29°56' E 122°16'0 0.0
2014-Sep-18 12:33N 29°56' E 122°16'0 0.0
2014-Sep-18 11:33N 29°56' E 122°16'0 0.0
2014-Sep-18 02:14N 29°56' E 122°16'0 0.0
2014-Sep-18 01:31N 29°56' E 122°16'0 0.0
2014-Sep-18 00:33N 29°56' E 122°16'0 0.0
2014-Sep-16 12:33N 29°56' E 122°16'0 0.0
2014-Sep-16 11:33N 29°56' E 122°16'0 0.0
2014-Sep-16 10:33N 29°56' E 122°16'0 0.0
2014-Sep-16 09:33N 29°56' E 122°16'0 0.1
2014-Sep-16 08:33N 29°56' E 122°16'0 0.0
2014-Sep-16 07:33N 29°56' E 122°16'0 0.0
2014-Sep-16 03:33N 29°56' E 122°16'0 0.0
2014-Sep-16 02:33N 29°56' E 122°16'0 0.0
2014-Sep-15 14:25N 29°56' E 122°16'0 0.0
2014-Sep-15 13:33N 29°56' E 122°16'0 0.0
2014-Sep-15 12:33N 29°56' E 122°16'0 0.0
2014-Sep-15 11:33N 29°56' E 122°16'0 0.0
2014-Sep-15 10:33N 29°56' E 122°16'0 0.0
2014-Sep-15 03:30N 29°56' E 122°16'0 0.0
2014-Sep-15 02:33N 29°56' E 122°16'0 0.0
2014-Sep-15 01:33N 29°56' E 122°16'0 0.1
2014-Sep-15 00:33N 29°56' E 122°16'0 0.0
2014-Sep-14 14:14N 29°56' E 122°16'0 0.0
2014-Sep-14 13:33N 29°56' E 122°16'0 0.0
2014-Sep-14 12:33N 29°56' E 122°16'0 0.0
2014-Sep-14 11:33N 29°56' E 122°16'0 0.0
2014-Sep-14 10:33N 29°56' E 122°16'0 0.0
2014-Sep-14 04:30N 29°56' E 122°16'0 0.0
2014-Sep-14 03:33N 29°56' E 122°16'0 0.0
2014-Sep-13 13:20N 29°56' E 122°16'0 0.0
2014-Sep-13 12:33N 29°56' E 122°16'0 0.0
2014-Sep-13 11:34N 29°56' E 122°16'0 0.0
2014-Sep-12 13:24N 29°56' E 122°16'0 0.0
2014-Sep-12 12:33N 29°56' E 122°16'0 0.1
2014-Sep-12 11:34N 29°56' E 122°16'0 0.0
2014-Sep-11 13:07N 29°56' E 122°16'0 0.0
2014-Sep-11 12:33N 29°56' E 122°16'0 0.1
2014-Sep-11 11:33N 29°56' E 122°16'0 0.0
2014-Sep-11 10:33N 29°56' E 122°16'0 0.0
2014-Sep-10 13:09N 29°56' E 122°16'0 0.0
2014-Sep-10 12:33N 29°56' E 122°16'0 0.0
2014-Sep-10 11:34N 29°56' E 122°16'0 0.1
2014-Sep-10 10:33N 29°56' E 122°16'0 0.0
2014-Sep-10 09:33N 29°56' E 122°16'0 0.0
2014-Sep-10 08:33N 29°56' E 122°16'0 0.0
2014-Sep-10 03:33N 29°56' E 122°16'0 0.0
2014-Sep-10 02:33N 29°56' E 122°16'0 0.0
2014-Sep-10 01:33N 29°56' E 122°16'0 0.0
2014-Sep-09 13:11N 29°56' E 122°16'0 0.0
2014-Sep-09 12:33N 29°56' E 122°16'0 0.0
2014-Sep-09 11:34N 29°56' E 122°16'0 0.0
2014-Sep-09 10:33N 29°56' E 122°16'  

Dump ship's entire track history